createdAt,value
2023-11-17T00:04:38.114Z,98289.61
2023-11-17T00:09:41.551Z,98285.84
2023-11-17T00:14:44.909Z,98281.24
2023-11-17T00:19:48.241Z,98279.65
2023-11-17T00:24:51.577Z,98274.03
2023-11-17T00:29:54.714Z,98269.23
2023-11-17T00:34:57.861Z,98261.95
2023-11-17T00:40:01.612Z,98254.83
2023-11-17T00:45:07.586Z,98249.77
2023-11-17T00:50:12.674Z,98246.67
2023-11-17T00:55:17.379Z,98243.29
2023-11-17T01:00:20.561Z,98250.52
2023-11-17T01:05:23.828Z,98240.74
2023-11-17T01:10:28.205Z,98237.52
2023-11-17T01:15:35.492Z,98234.13
2023-11-17T01:20:42.312Z,98231.98
2023-11-17T01:25:46.628Z,98232.70
2023-11-17T01:30:49.963Z,98221.71
2023-11-17T01:35:53.145Z,98211.61
2023-11-17T01:40:58.243Z,98204.17
2023-11-17T01:46:02.078Z,98191.98
2023-11-17T01:51:06.700Z,98181.29
2023-11-17T01:56:10.044Z,98171.94
2023-11-17T02:01:15.286Z,98165.71
2023-11-17T02:06:39.148Z,98163.27
2023-11-17T02:11:51.505Z,98163.02
2023-11-17T02:16:55.486Z,98152.42
2023-11-17T02:22:04.139Z,98148.60
2023-11-17T02:28:01.366Z,98148.73
2023-11-17T02:33:09.659Z,98143.05
2023-11-17T02:38:14.342Z,98144.50
2023-11-17T02:43:17.582Z,98142.64
2023-11-17T02:48:29.664Z,98134.99
2023-11-17T02:53:37.029Z,98127.73
2023-11-17T02:58:40.304Z,98121.52
2023-11-17T03:03:45.287Z,98114.88
2023-11-17T03:08:50.768Z,98105.95
2023-11-17T03:13:54.063Z,98103.63
2023-11-17T03:18:57.296Z,98101.77
2023-11-17T03:24:00.386Z,98102.47
2023-11-17T03:29:06.275Z,98101.21
2023-11-17T03:34:11.015Z,98100.26
2023-11-17T03:39:15.076Z,98104.33
2023-11-17T03:44:18.188Z,98100.67
2023-11-17T03:49:22.806Z,98102.06
2023-11-17T03:54:26.165Z,98096.71
2023-11-17T03:59:31.646Z,98097.52
2023-11-17T04:04:35.710Z,98089.42
2023-11-17T04:09:39.119Z,98082.48
2023-11-17T04:14:43.657Z,98079.20
2023-11-17T04:19:48.021Z,98080.73
2023-11-17T04:24:51.281Z,98083.14
2023-11-17T04:29:54.668Z,98088.52
2023-11-17T04:34:57.929Z,98084.68
2023-11-17T04:40:03.228Z,98082.45
2023-11-17T04:45:10.648Z,98076.66
2023-11-17T04:50:14.322Z,98069.43
2023-11-17T04:55:17.842Z,98068.52
2023-11-17T05:00:21.604Z,98064.20
2023-11-17T05:05:25.041Z,98063.13
2023-11-17T05:10:28.484Z,98064.91
2023-11-17T05:15:33.578Z,98067.71
2023-11-17T05:20:38.671Z,98067.08
2023-11-17T05:25:41.899Z,98068.86
2023-11-17T05:30:45.110Z,98066.82
2023-11-17T05:35:49.176Z,98068.12
2023-11-17T05:40:53.391Z,98071.05
2023-11-17T05:51:10.782Z,98079.30
2023-11-17T05:56:14.040Z,98084.39
2023-11-17T06:01:17.843Z,98089.84
2023-11-17T06:06:21.028Z,98088.55
2023-11-17T06:11:26.952Z,98095.79
2023-11-17T06:16:30.543Z,98092.00
2023-11-17T06:21:33.866Z,98097.48
2023-11-17T06:26:37.084Z,98098.40
2023-11-17T06:31:44.745Z,98100.20
2023-11-17T06:36:48.263Z,98104.58
2023-11-17T06:41:53.082Z,98103.10
2023-11-17T06:46:57.622Z,98106.27
2023-11-17T06:52:03.227Z,98107.30
2023-11-17T06:57:08.352Z,98115.09
2023-11-17T07:02:11.611Z,98121.45
2023-11-17T07:07:15.846Z,98123.63
2023-11-17T07:12:19.101Z,98131.16
2023-11-17T07:17:22.516Z,98130.91
2023-11-17T07:22:26.344Z,98138.95
2023-11-17T07:27:29.851Z,98141.77
2023-11-17T07:32:33.071Z,98148.48
2023-11-17T07:37:36.368Z,98151.40
2023-11-17T07:42:41.077Z,98156.36
2023-11-17T07:47:44.847Z,98165.30
2023-11-17T07:52:48.013Z,98168.46
2023-11-17T07:57:51.544Z,98169.83
2023-11-17T08:02:57.545Z,98169.58
2023-11-17T08:08:02.023Z,98169.59
2023-11-17T08:13:05.842Z,98179.86
2023-11-17T08:18:10.717Z,98187.15
2023-11-17T08:23:14.504Z,98193.64
2023-11-17T08:28:18.202Z,98197.77
2023-11-17T08:33:21.595Z,98205.09
2023-11-17T08:38:26.759Z,98210.74
2023-11-17T08:43:30.250Z,98220.46
2023-11-17T08:48:37.262Z,98224.70
2023-11-17T08:53:40.342Z,98230.77
2023-11-17T08:58:43.871Z,98235.95
2023-11-17T09:03:48.517Z,98238.31
2023-11-17T09:08:52.064Z,98239.83
2023-11-17T09:13:55.159Z,98241.77
2023-11-17T09:19:00.883Z,98248.63
2023-11-17T09:24:04.507Z,98251.55
2023-11-17T09:29:08.805Z,98253.51
2023-11-17T09:34:12.063Z,98257.52
2023-11-17T09:39:17.037Z,98257.41
2023-11-17T09:44:20.716Z,98258.44
2023-11-17T09:49:29.887Z,98256.98
2023-11-17T09:54:34.568Z,98256.98
2023-11-17T09:59:44.177Z,98253.15
2023-11-17T10:04:47.405Z,98245.73
2023-11-17T10:09:51.092Z,98241.59
2023-11-17T10:14:55.122Z,98243.20
2023-11-17T10:19:59.620Z,98246.87
2023-11-17T10:25:03.626Z,98250.67
2023-11-17T10:30:09.107Z,98259.95
2023-11-17T10:35:18.408Z,98262.64
2023-11-17T10:40:33.248Z,98264.99
2023-11-17T10:45:48.559Z,98268.23
2023-11-17T10:50:53.437Z,98271.59
2023-11-17T10:55:59.111Z,98276.33
2023-11-17T11:01:04.975Z,98288.65
2023-11-17T11:06:09.619Z,98297.30
2023-11-17T11:11:22.058Z,98296.95
2023-11-17T11:16:26.114Z,98299.53
2023-11-17T11:21:35.069Z,98308.22
2023-11-17T11:26:39.527Z,98314.50
2023-11-17T11:31:42.776Z,98318.23
2023-11-17T11:36:49.019Z,98314.81
2023-11-17T11:41:52.406Z,98311.50
2023-11-17T11:46:59.108Z,98311.80
2023-11-17T11:52:14.689Z,98319.63
2023-11-17T11:57:30.044Z,98323.35
2023-11-17T12:02:35.084Z,98326.39
2023-11-17T12:07:39.332Z,98330.50
2023-11-17T12:12:45.523Z,98334.49
2023-11-17T12:17:54.510Z,98337.31
2023-11-17T12:23:06.922Z,98341.18
2023-11-17T12:28:11.059Z,98346.23
2023-11-17T12:33:15.653Z,98355.58
2023-11-17T12:38:18.858Z,98370.92
2023-11-17T12:43:22.894Z,98379.77
2023-11-17T12:48:26.109Z,98381.58
2023-11-17T12:53:50.804Z,98381.13
2023-11-17T12:58:55.931Z,98389.81
2023-11-17T13:04:01.127Z,98393.70
2023-11-17T13:09:11.208Z,98395.65
2023-11-17T13:14:25.726Z,98400.58
2023-11-17T13:19:30.584Z,98403.64
2023-11-17T13:24:34.022Z,98409.86
2023-11-17T13:29:41.730Z,98414.46
2023-11-17T13:34:55.222Z,98421.92
2023-11-17T13:40:00.372Z,98435.62
2023-11-17T13:45:05.027Z,98440.58
2023-11-17T13:50:16.506Z,98446.24
2023-11-17T13:55:21.248Z,98453.80
2023-11-17T14:00:27.593Z,98463.38
2023-11-17T14:05:31.046Z,98469.13
2023-11-17T14:10:34.957Z,98480.63
2023-11-17T14:15:47.815Z,98482.52
2023-11-17T14:20:56.663Z,98489.85
2023-11-17T14:25:59.900Z,98508.08
2023-11-17T14:31:09.562Z,98521.10
2023-11-17T14:36:12.926Z,98529.64
2023-11-17T14:41:17.824Z,98542.16
2023-11-17T14:46:25.076Z,98549.61
2023-11-17T14:51:31.337Z,98560.35
2023-11-17T14:56:35.538Z,98568.27
2023-11-17T15:01:44.031Z,98572.59
2023-11-17T15:06:55.685Z,98584.26
2023-11-17T15:11:59.153Z,98596.13
2023-11-17T15:17:02.302Z,98596.31
2023-11-17T15:22:06.601Z,98604.80
2023-11-17T15:27:09.715Z,98619.85
2023-11-17T15:32:12.927Z,98625.31
2023-11-17T15:37:16.133Z,98627.85
2023-11-17T15:42:19.496Z,98636.88
2023-11-17T15:47:22.987Z,98649.52
2023-11-17T15:52:26.126Z,98655.83
2023-11-17T15:57:29.184Z,98662.26
2023-11-17T16:02:33.238Z,98670.25
2023-11-17T16:07:36.488Z,98678.36
2023-11-17T16:12:40.495Z,98688.58
2023-11-17T16:17:43.586Z,98698.30
2023-11-17T16:22:47.684Z,98705.69
2023-11-17T16:27:52.589Z,98718.66
2023-11-17T16:32:56.737Z,98727.31
2023-11-17T16:38:00.462Z,98734.40
2023-11-17T16:43:12.144Z,98744.31
2023-11-17T16:48:15.899Z,98753.56
2023-11-17T16:53:20.806Z,98756.73
2023-11-17T16:58:24.928Z,98764.08
2023-11-17T17:03:28.462Z,98770.16
2023-11-17T17:08:32.481Z,98774.67
2023-11-17T17:13:37.010Z,98775.07
2023-11-17T17:18:41.241Z,98780.48
2023-11-17T17:23:44.323Z,98784.60
2023-11-17T17:28:47.445Z,98793.90
2023-11-17T17:33:50.645Z,98797.73
2023-11-17T17:38:53.769Z,98798.26
2023-11-17T17:43:57.101Z,98804.08
2023-11-17T17:49:01.253Z,98806.52
2023-11-17T17:54:06.430Z,98811.77
2023-11-17T17:59:09.502Z,98817.15
2023-11-17T18:04:13.485Z,98819.52
2023-11-17T18:09:16.998Z,98816.42
2023-11-17T18:14:20.325Z,98814.96
2023-11-17T18:19:23.547Z,98819.77
2023-11-17T18:24:26.632Z,98824.16
2023-11-17T18:29:29.870Z,98832.50
2023-11-17T18:34:33.094Z,98834.51
2023-11-17T18:39:38.322Z,98838.23
2023-11-17T18:44:41.459Z,98834.71
2023-11-17T18:49:46.170Z,98837.13
2023-11-17T18:54:50.308Z,98842.52
2023-11-17T18:59:53.503Z,98850.29
2023-11-17T19:04:56.780Z,98859.06
2023-11-17T19:10:00.285Z,98864.06
2023-11-17T19:15:07.894Z,98862.32
2023-11-17T19:20:16.663Z,98866.10
2023-11-17T19:25:19.896Z,98872.02
2023-11-17T19:30:23.072Z,98871.31
2023-11-17T19:35:26.128Z,98871.17
2023-11-17T19:40:29.328Z,98870.34
2023-11-17T19:45:32.718Z,98873.97
2023-11-17T19:50:36.058Z,98878.63
2023-11-17T19:55:39.279Z,98877.54
2023-11-17T20:00:44.195Z,98876.86
2023-11-17T20:05:47.673Z,98878.13
2023-11-17T20:10:51.186Z,98883.75
2023-11-17T20:15:55.530Z,98884.98
2023-11-17T20:21:00.886Z,98893.81
2023-11-17T20:26:08.926Z,98895.40
2023-11-17T20:31:14.566Z,98890.64
2023-11-17T20:36:21.714Z,98893.49
2023-11-17T20:41:25.555Z,98895.20
2023-11-17T20:46:29.298Z,98897.06
2023-11-17T20:51:33.019Z,98908.17
2023-11-17T20:56:36.459Z,98912.43
2023-11-17T21:01:47.970Z,98917.66
2023-11-17T21:06:52.996Z,98924.67
2023-11-17T21:11:56.317Z,98933.71
2023-11-17T21:16:59.342Z,98933.46
2023-11-17T21:22:02.819Z,98936.05
2023-11-17T21:27:08.192Z,98941.52
2023-11-17T21:32:12.589Z,98946.27
2023-11-17T21:37:15.751Z,98942.17
2023-11-17T21:42:19.337Z,98944.09
2023-11-17T21:47:22.545Z,98949.98
2023-11-17T21:52:25.793Z,98958.15
2023-11-17T21:57:28.952Z,98964.91
2023-11-17T22:02:32.065Z,98969.67
2023-11-17T22:07:35.341Z,98976.68
2023-11-17T22:12:42.781Z,98982.73
2023-11-17T22:17:46.485Z,98987.09
2023-11-17T22:22:51.990Z,98987.17
2023-11-17T22:27:56.563Z,98996.17
2023-11-17T22:32:59.916Z,98997.40
2023-11-17T22:38:03.387Z,98998.31
2023-11-17T22:43:06.714Z,99001.45
2023-11-17T22:48:09.881Z,99002.96
2023-11-17T22:53:13.216Z,98997.64
2023-11-17T22:58:16.350Z,98994.63
2023-11-17T23:03:19.598Z,98995.77
2023-11-17T23:08:22.830Z,98996.70
2023-11-17T23:13:26.551Z,98993.90
2023-11-17T23:18:30.280Z,98992.30
2023-11-17T23:23:33.471Z,98995.17
2023-11-17T23:28:36.843Z,98997.92
2023-11-17T23:33:40.074Z,98994.68
2023-11-17T23:38:43.168Z,98990.68
2023-11-17T23:43:47.905Z,98992.95
2023-11-17T23:48:51.093Z,98994.98
2023-11-17T23:53:56.409Z,98993.25
2023-11-17T23:59:02.486Z,98997.25
